CER5 weather

CLOSED Conklin Airport
Conklin, Alberta, Canada

Public forecast

Using degrees Celsius for public forecast. Weather courtesy of forecast.io.

Closest aviation weather report (METAR) to Conklin Airport

Closest report is Fort McMurray Airport, 61.3 nm (113.6 km) N. Retrieved 2019/10/19 08:00 UTC (10 minutes ago):

CYMM 190800Z AUTO 24003KT 9SM CLR 00/M00 A2942 RMK SLP977

Closest aviation forecast (TAF) to Conklin Airport

Closest forecast is Fort McMurray Airport, 61.3 nm (113.6 km) N. Retrieved 2019/10/19 07:39 UTC (31 minutes ago):

TAF TAF CYMM 190638Z 1907/1919 VRB03KT P6SM SCT030 BKN070 TEMPO 1907/1910 P6SM -RA BKN030 OVC070 FM191000 VRB03KT P6SM BKN025 TEMPO 1910/1919 3SM -RASN BR SCT008 BKN012 OVC020 RMK FCST BASED ON AUTO OBS NXT FCST BY 191300Z